Time;durP1;ratioP1;P1;durP2;ratioP2;P2;SDS_P1;SDS_P2;PMS_P1;PMS_P2;Temp;Humidity;BMP_temperature;BMP_pressure;BME280_temperature;BME280_humidity;BME280_pressure;Samples;Min_cycle;Max_cycle;Signal;HPM_P1;HPM_P2
2021/06/23 00:00:45;;;;;;;1.60;1.10;;;15.00;98.20;;;;;;4968716;28;20491;-87
2021/06/23 00:03:11;;;;;;;1.50;1.00;;;15.00;98.20;;;;;;4967935;28;20486;-83
2021/06/23 00:05:38;;;;;;;1.50;1.00;;;14.90;98.20;;;;;;4978493;28;20473;-82
2021/06/23 00:08:07;;;;;;;1.53;1.00;;;14.90;98.20;;;;;;4983197;28;20481;-82
2021/06/23 00:10:34;;;;;;;1.57;1.00;;;14.90;98.20;;;;;;4969986;28;20859;-84
2021/06/23 00:13:04;;;;;;;1.53;1.00;;;14.90;98.20;;;;;;4983930;28;20477;-84
2021/06/23 00:15:31;;;;;;;1.60;1.10;;;14.80;98.20;;;;;;4978189;28;20502;-81
2021/06/23 00:17:58;;;;;;;1.50;1.00;;;14.80;98.20;;;;;;4980715;28;20499;-83
2021/06/23 00:20:25;;;;;;;1.60;1.00;;;14.80;98.20;;;;;;4976690;28;20848;-85
2021/06/23 00:22:52;;;;;;;1.53;1.00;;;14.80;98.20;;;;;;4959998;28;20712;-84
2021/06/23 00:25:20;;;;;;;1.60;1.10;;;14.80;98.20;;;;;;4975395;28;20465;-84
2021/06/23 00:27:47;;;;;;;1.57;1.03;;;14.80;98.20;;;;;;4966591;28;20582;-84
2021/06/23 00:30:16;;;;;;;1.53;1.00;;;14.80;98.20;;;;;;4975620;28;21183;-83
2021/06/23 00:32:45;;;;;;;1.57;1.10;;;14.80;98.20;;;;;;4979108;28;20526;-85
2021/06/23 00:35:12;;;;;;;1.50;1.00;;;14.80;98.20;;;;;;4974021;28;20462;-84
2021/06/23 00:37:39;;;;;;;1.60;1.23;;;14.80;98.20;;;;;;4980188;28;20492;-84
2021/06/23 00:40:08;;;;;;;1.60;1.00;;;14.90;98.20;;;;;;4976407;28;20485;-83
2021/06/23 00:42:36;;;;;;;1.50;1.00;;;14.90;98.20;;;;;;4974268;28;20496;-80
2021/06/23 00:45:04;;;;;;;1.60;1.20;;;14.90;98.20;;;;;;4975000;28;20470;-80
2021/06/23 00:47:31;;;;;;;1.53;1.00;;;14.80;98.20;;;;;;4979693;28;20505;-80
2021/06/23 00:49:58;;;;;;;1.53;1.00;;;14.80;98.20;;;;;;4977759;28;20466;-81
2021/06/23 00:52:25;;;;;;;1.53;1.00;;;14.80;98.20;;;;;;4972518;28;20481;-82
2021/06/23 00:54:53;;;;;;;1.53;1.00;;;14.80;98.20;;;;;;4977444;28;20469;-78
2021/06/23 00:57:21;;;;;;;1.50;1.00;;;14.80;98.20;;;;;;4962756;28;20490;-82
2021/06/23 00:59:52;;;;;;;1.50;1.00;;;14.80;98.20;;;;;;4972267;28;20720;-82
2021/06/23 01:02:20;;;;;;;1.60;1.00;;;14.80;98.20;;;;;;4971193;28;20497;-81
2021/06/23 01:04:47;;;;;;;1.53;1.10;;;14.80;98.20;;;;;;4975614;28;20877;-81
2021/06/23 01:07:14;;;;;;;1.50;1.00;;;14.80;98.20;;;;;;4976877;28;20492;-81
2021/06/23 01:09:41;;;;;;;1.57;1.10;;;14.70;98.20;;;;;;4975814;28;20462;-81
2021/06/23 01:12:21;;;;;;;1.53;1.00;;;14.70;98.20;;;;;;4967593;28;20494;-81
2021/06/23 01:14:53;;;;;;;1.53;1.10;;;14.70;98.20;;;;;;4964968;28;20468;-82
2021/06/23 01:17:21;;;;;;;1.57;1.10;;;14.70;98.20;;;;;;4978634;28;20489;-82
2021/06/23 01:19:49;;;;;;;1.50;1.00;;;14.70;98.20;;;;;;4975954;28;20494;-80
2021/06/23 01:22:18;;;;;;;1.50;0.90;;;14.80;98.20;;;;;;4971108;28;20532;-82
2021/06/23 01:24:45;;;;;;;1.60;1.20;;;14.70;98.20;;;;;;4976530;28;20961;-82
2021/06/23 01:27:12;;;;;;;1.50;1.00;;;14.80;98.20;;;;;;4972190;28;20563;-81
2021/06/23 01:29:40;;;;;;;1.50;0.93;;;14.80;98.20;;;;;;4978202;28;20473;-81
2021/06/23 01:32:09;;;;;;;1.60;1.10;;;14.80;98.20;;;;;;4963248;28;20489;-81
2021/06/23 01:34:36;;;;;;;1.53;1.00;;;14.80;98.20;;;;;;4978182;28;20521;-81
2021/06/23 01:37:03;;;;;;;1.50;1.00;;;14.70;98.20;;;;;;4973173;28;20493;-81
2021/06/23 01:39:32;;;;;;;1.53;1.00;;;14.70;98.20;;;;;;4975404;28;20496;-82
2021/06/23 01:41:58;;;;;;;1.50;1.00;;;14.70;98.20;;;;;;4972625;28;20496;-83
2021/06/23 01:44:25;;;;;;;1.53;1.00;;;14.70;98.20;;;;;;4973622;28;20542;-82
2021/06/23 01:46:52;;;;;;;1.53;1.00;;;14.70;98.20;;;;;;4959398;28;20477;-82
2021/06/23 01:49:21;;;;;;;1.50;1.00;;;14.70;98.20;;;;;;4970325;28;20489;-81
2021/06/23 01:51:48;;;;;;;1.50;1.00;;;14.70;98.20;;;;;;4962697;28;20707;-81
2021/06/23 01:54:15;;;;;;;1.50;1.00;;;14.70;98.20;;;;;;4972444;28;20466;-83
2021/06/23 01:56:43;;;;;;;1.50;1.00;;;14.70;98.20;;;;;;4964478;28;20473;-83
2021/06/23 01:59:10;;;;;;;1.50;1.00;;;14.70;98.20;;;;;;4977770;28;20863;-80
2021/06/23 02:01:50;;;;;;;1.57;1.17;;;14.70;98.20;;;;;;4966222;28;20501;-81
2021/06/23 02:04:36;;;;;;;1.50;1.00;;;14.70;98.20;;;;;;4980981;28;20458;-82
2021/06/23 02:07:17;;;;;;;1.50;1.00;;;14.70;98.20;;;;;;4976407;28;20480;-81
2021/06/23 02:10:00;;;;;;;1.50;1.00;;;14.70;98.20;;;;;;4977050;28;20469;-81
2021/06/23 02:12:52;;;;;;;1.60;1.00;;;14.70;98.20;;;;;;4973603;28;20476;-82
2021/06/23 02:15:20;;;;;;;1.50;1.00;;;14.70;98.20;;;;;;4975460;28;20466;-81
2021/06/23 02:17:47;;;;;;;1.53;1.00;;;14.60;98.20;;;;;;4979157;28;20858;-80
2021/06/23 02:20:17;;;;;;;1.50;0.90;;;14.60;98.20;;;;;;4975418;28;20501;-81
2021/06/23 02:22:45;;;;;;;1.50;1.00;;;14.60;98.20;;;;;;4982293;28;20573;-81
2021/06/23 02:25:14;;;;;;;1.60;1.00;;;14.60;98.20;;;;;;4978342;28;20474;-82
2021/06/23 02:27:43;;;;;;;1.53;1.00;;;14.60;98.20;;;;;;4980868;28;20512;-79
2021/06/23 02:30:13;;;;;;;1.60;1.03;;;14.60;98.20;;;;;;4973178;28;20473;-81
2021/06/23 02:32:41;;;;;;;1.60;1.10;;;14.60;98.20;;;;;;4971872;28;20485;-78
2021/06/23 02:35:10;;;;;;;1.50;0.90;;;14.60;98.20;;;;;;4978887;28;20476;-79
2021/06/23 02:37:38;;;;;;;1.60;1.20;;;14.60;98.20;;;;;;4956931;28;20570;-80
2021/06/23 02:40:06;;;;;;;1.57;1.10;;;14.60;98.20;;;;;;4970812;28;20519;-80
2021/06/23 02:42:34;;;;;;;1.53;1.00;;;14.70;98.20;;;;;;4961588;28;22094;-79
2021/06/23 02:45:02;;;;;;;1.53;1.00;;;14.70;98.20;;;;;;4971454;28;20466;-78
2021/06/23 02:47:29;;;;;;;1.50;1.10;;;14.70;98.20;;;;;;4970124;28;20481;-79
2021/06/23 02:49:57;;;;;;;1.50;1.00;;;14.80;98.20;;;;;;4971971;28;20552;-79
2021/06/23 02:52:25;;;;;;;1.50;1.00;;;14.80;98.20;;;;;;4976221;28;21016;-79
2021/06/23 02:54:52;;;;;;;1.53;1.10;;;14.80;98.20;;;;;;4983257;28;21175;-80
2021/06/23 02:57:25;;;;;;;1.50;1.00;;;14.80;98.20;;;;;;4977766;28;20506;-79
2021/06/23 02:59:53;;;;;;;1.50;1.00;;;14.80;98.20;;;;;;4977505;28;20548;-79
2021/06/23 03:02:21;;;;;;;1.57;1.00;;;14.80;98.20;;;;;;4976386;28;20495;-79
2021/06/23 03:04:49;;;;;;;1.50;1.00;;;14.80;98.20;;;;;;4977342;28;20553;-77
2021/06/23 03:07:20;;;;;;;1.50;1.00;;;14.80;98.20;;;;;;4979911;28;20890;-80
2021/06/23 03:09:51;;;;;;;1.50;1.00;;;14.80;98.20;;;;;;4977582;28;20481;-78
2021/06/23 03:12:18;;;;;;;1.50;1.00;;;14.70;98.20;;;;;;4975961;28;20565;-79
2021/06/23 03:14:48;;;;;;;1.57;1.07;;;14.70;98.20;;;;;;4974292;28;20466;-79
2021/06/23 03:17:15;;;;;;;1.50;1.00;;;14.70;98.20;;;;;;4964763;28;20490;-79
2021/06/23 03:19:46;;;;;;;1.60;1.07;;;14.70;98.20;;;;;;4975482;28;20482;-80
2021/06/23 03:22:13;;;;;;;1.60;1.10;;;14.70;98.20;;;;;;4964622;28;20639;-78
2021/06/23 03:24:40;;;;;;;1.60;1.10;;;14.70;98.20;;;;;;4978188;28;20473;-77
2021/06/23 03:27:11;;;;;;;1.50;1.00;;;14.70;98.20;;;;;;4969896;28;20490;-79
2021/06/23 03:29:38;;;;;;;1.53;1.10;;;14.70;98.20;;;;;;4977793;28;20469;-79
2021/06/23 03:32:11;;;;;;;1.60;1.10;;;14.80;98.20;;;;;;4973307;28;20500;-79
2021/06/23 03:34:40;;;;;;;1.50;1.00;;;14.70;98.20;;;;;;4980499;28;20458;-80
2021/06/23 03:37:09;;;;;;;1.53;1.00;;;14.70;98.20;;;;;;4964095;28;20482;-79
2021/06/23 03:39:37;;;;;;;1.57;1.00;;;14.70;98.20;;;;;;4973660;28;20486;-78
2021/06/23 03:42:04;;;;;;;1.50;1.00;;;14.80;98.20;;;;;;4977677;28;20917;-80
2021/06/23 03:44:31;;;;;;;1.60;1.07;;;14.70;98.20;;;;;;4976271;28;20470;-79
2021/06/23 03:47:02;;;;;;;1.53;1.10;;;14.80;98.20;;;;;;4972696;28;20552;-80
2021/06/23 03:49:30;;;;;;;1.53;1.00;;;14.80;98.20;;;;;;4973525;28;20470;-79
2021/06/23 03:51:57;;;;;;;1.57;1.00;;;14.80;98.20;;;;;;4971399;28;21402;-78
2021/06/23 03:54:25;;;;;;;1.50;1.00;;;14.80;98.20;;;;;;4972937;28;20564;-80
2021/06/23 03:56:52;;;;;;;1.50;1.00;;;14.80;98.20;;;;;;4971938;28;20485;-80
2021/06/23 03:59:19;;;;;;;1.53;1.10;;;14.80;98.20;;;;;;4978836;28;20482;-79
2021/06/23 04:01:49;;;;;;;1.50;1.00;;;14.80;98.20;;;;;;4972079;28;20485;-78
2021/06/23 04:04:18;;;;;;;1.57;1.00;;;14.80;98.20;;;;;;4983698;28;20494;-80
2021/06/23 04:06:45;;;;;;;1.53;1.00;;;14.90;98.20;;;;;;4973798;28;20477;-79
2021/06/23 04:09:14;;;;;;;1.53;1.00;;;14.90;98.20;;;;;;4983530;28;20461;-78
2021/06/23 04:11:42;;;;;;;1.53;1.00;;;14.90;98.20;;;;;;4966752;28;20924;-79
2021/06/23 04:14:14;;;;;;;1.60;1.10;;;14.90;98.20;;;;;;4982803;28;20513;-78
2021/06/23 04:16:40;;;;;;;1.50;1.00;;;14.90;98.20;;;;;;4972671;28;20515;-79
2021/06/23 04:19:08;;;;;;;1.57;1.00;;;15.00;98.20;;;;;;4985869;28;20473;-79
2021/06/23 04:21:36;;;;;;;1.57;1.03;;;15.00;98.20;;;;;;4967893;28;20875;-77
2021/06/23 04:24:03;;;;;;;1.53;1.07;;;15.00;98.20;;;;;;4982447;28;20470;-80
2021/06/23 04:26:32;;;;;;;1.53;1.00;;;15.00;98.20;;;;;;4965941;28;20488;-79
2021/06/23 04:29:03;;;;;;;1.50;1.00;;;14.90;98.20;;;;;;4970557;28;20526;-79
2021/06/23 04:31:30;;;;;;;1.50;1.00;;;14.90;98.20;;;;;;4970308;28;21014;-79
2021/06/23 04:34:00;;;;;;;1.93;1.30;;;14.90;98.20;;;;;;4983622;28;20462;-78
2021/06/23 04:36:28;;;;;;;1.50;1.00;;;15.00;98.20;;;;;;4973667;28;20473;-78
2021/06/23 04:38:54;;;;;;;1.53;1.00;;;15.00;98.20;;;;;;4978330;28;20478;-79
2021/06/23 04:41:46;;;;;;;1.50;1.03;;;15.10;98.20;;;;;;4963486;28;20486;-82
2021/06/23 04:47:15;;;;;;;1.53;1.00;;;15.10;98.20;;;;;;4951628;28;21048;-81
2021/06/23 04:49:50;;;;;;;1.60;1.00;;;15.10;98.20;;;;;;4973051;28;20473;-81
2021/06/23 04:52:20;;;;;;;1.53;1.00;;;15.10;98.20;;;;;;4983971;28;20484;-83
2021/06/23 04:54:54;;;;;;;1.60;1.10;;;15.10;98.20;;;;;;4979215;28;20827;-82
2021/06/23 04:57:27;;;;;;;1.57;1.00;;;15.20;98.20;;;;;;4981951;28;20485;-82
2021/06/23 04:59:56;;;;;;;1.50;1.00;;;15.20;98.20;;;;;;4980181;28;20478;-82
2021/06/23 05:02:23;;;;;;;1.60;1.10;;;15.20;98.20;;;;;;4967058;28;20633;-82
2021/06/23 05:04:52;;;;;;;1.50;1.00;;;15.30;98.20;;;;;;4976654;28;20469;-82
2021/06/23 05:07:20;;;;;;;1.60;1.10;;;15.30;98.20;;;;;;4979924;28;20485;-84
2021/06/23 05:09:47;;;;;;;1.50;1.00;;;15.30;98.20;;;;;;4980555;28;20933;-82
2021/06/23 05:12:15;;;;;;;1.50;1.00;;;15.40;98.20;;;;;;4973653;28;20489;-82
2021/06/23 05:14:42;;;;;;;1.50;0.93;;;15.40;98.20;;;;;;4985982;28;20482;-83
2021/06/23 05:17:11;;;;;;;1.60;1.10;;;15.40;98.20;;;;;;4971211;28;20488;-84
2021/06/23 05:19:39;;;;;;;1.50;1.00;;;15.40;98.20;;;;;;4979487;28;20481;-84
2021/06/23 05:22:09;;;;;;;1.50;1.00;;;15.40;98.20;;;;;;4964002;28;20496;-84
2021/06/23 05:24:38;;;;;;;1.50;1.00;;;15.40;98.20;;;;;;4972446;28;20494;-85
2021/06/23 05:27:05;;;;;;;1.50;1.00;;;15.50;98.20;;;;;;4976411;28;20488;-85
2021/06/23 05:29:32;;;;;;;1.50;1.00;;;15.50;98.20;;;;;;4979994;28;20603;-84
2021/06/23 05:31:59;;;;;;;1.50;1.00;;;15.50;98.20;;;;;;4975907;28;20489;-80
2021/06/23 05:34:28;;;;;;;1.50;1.00;;;15.50;98.20;;;;;;4976047;28;20617;-80
2021/06/23 05:36:55;;;;;;;1.53;1.00;;;15.50;98.20;;;;;;4965720;28;20496;-81
2021/06/23 05:39:25;;;;;;;1.53;1.00;;;15.60;98.20;;;;;;4979014;28;20465;-82
2021/06/23 05:52:20;;;;;;;1.50;1.00;;;15.80;98.20;;;;;;4897745;29;20500;-81
2021/06/23 05:55:27;;;;;;;1.53;0.90;;;15.90;98.20;;;;;;4884831;29;20466;-82
2021/06/23 05:58:39;;;;;;;1.60;1.30;;;15.90;98.20;;;;;;4814698;29;20491;-81
2021/06/23 06:02:30;;;;;;;;;;;;;;;;;;;;;
2021/06/23 06:12:21;;;;;;;1.50;1.00;;;16.30;98.20;;;;;;4856356;29;20592;-83
2021/06/23 06:15:09;;;;;;;1.57;1.00;;;16.40;98.20;;;;;;4891377;29;20551;-82
2021/06/23 06:19:00;;;;;;;;;;;;;;;;;;;;;
2021/06/23 06:22:05;;;;;;;1.90;1.40;;;16.50;98.20;;;;;;4886040;29;20981;-83
2021/06/23 06:25:14;;;;;;;1.60;1.10;;;16.40;98.20;;;;;;4898615;29;20571;-82
2021/06/23 06:32:02;;;;;;;1.60;1.00;;;16.50;98.20;;;;;;4870937;29;20474;-81
2021/06/23 06:35:06;;;;;;;1.60;1.00;;;16.50;98.20;;;;;;4855862;29;20465;-81
2021/06/23 06:40:55;;;;;;;1.50;1.10;;;16.50;98.20;;;;;;4863381;29;20486;-84
2021/06/23 06:43:29;;;;;;;1.53;1.00;;;16.50;98.20;;;;;;4901116;29;20933;-81
2021/06/23 06:46:16;;;;;;;1.57;1.00;;;16.50;98.20;;;;;;4936757;29;20460;-82
2021/06/23 06:48:43;;;;;;;1.50;1.00;;;16.40;98.20;;;;;;4965934;28;20477;-82
2021/06/23 06:51:15;;;;;;;1.50;1.00;;;16.40;98.20;;;;;;4968747;28;20491;-81
2021/06/23 06:53:42;;;;;;;1.50;0.90;;;16.30;98.20;;;;;;4979688;28;20466;-82
2021/06/23 06:56:09;;;;;;;1.50;1.00;;;16.40;98.20;;;;;;4967178;28;20481;-82
2021/06/23 06:58:36;;;;;;;1.50;1.00;;;16.40;98.20;;;;;;4967482;28;20466;-84
2021/06/23 07:01:13;;;;;;;1.53;1.00;;;16.30;98.20;;;;;;4968804;28;20549;-84
2021/06/23 07:03:55;;;;;;;1.50;1.00;;;16.30;98.20;;;;;;4986088;28;20497;-85
2021/06/23 07:06:30;;;;;;;1.53;1.00;;;16.30;98.20;;;;;;4971881;28;20483;-81
2021/06/23 07:11:48;;;;;;;1.57;1.00;;;16.30;98.20;;;;;;4968322;28;20503;-78
2021/06/23 07:14:16;;;;;;;1.57;0.97;;;16.30;98.20;;;;;;4979030;28;20473;-80
2021/06/23 07:17:39;;;;;;;;;;;;;;;;;;;;;
2021/06/23 07:24:02;;;;;;;1.50;1.00;;;16.50;98.20;;;;;;4942897;28;20831;-80
2021/06/23 07:26:32;;;;;;;1.57;1.00;;;16.50;98.20;;;;;;4967852;28;20488;-80
2021/06/23 07:29:10;;;;;;;1.50;1.00;;;16.50;98.20;;;;;;4979551;28;20474;-79
2021/06/23 07:31:51;;;;;;;1.57;1.00;;;16.50;98.20;;;;;;4963307;28;20494;-80
2021/06/23 07:40:18;;;;;;;1.60;1.20;;;16.50;98.20;;;;;;4964229;28;20480;-81
2021/06/23 07:43:02;;;;;;;1.60;1.10;;;16.50;98.20;;;;;;4974626;28;20524;-80
2021/06/23 07:45:37;;;;;;;1.50;0.90;;;16.50;98.20;;;;;;4973136;28;20519;-80
2021/06/23 07:48:14;;;;;;;1.50;1.00;;;16.60;98.20;;;;;;4978568;28;20504;-81
2021/06/23 07:50:51;;;;;;;1.53;1.00;;;16.60;98.20;;;;;;4979103;28;20482;-80
2021/06/23 08:11:38;;;;;;;1.50;1.00;;;16.60;98.20;;;;;;4951362;28;20473;-79
2021/06/23 08:14:31;;;;;;;1.50;1.00;;;16.60;98.20;;;;;;4993756;28;20505;-80
2021/06/23 08:17:10;;;;;;;1.50;1.00;;;16.70;98.20;;;;;;4969753;28;20900;-82
2021/06/23 08:19:44;;;;;;;1.50;1.00;;;16.70;98.20;;;;;;4974944;28;20919;-81
2021/06/23 08:22:48;;;;;;;1.90;1.30;;;16.80;98.20;;;;;;4982105;28;20592;-79
2021/06/23 08:25:18;;;;;;;1.50;1.00;;;16.80;98.20;;;;;;4977573;28;20830;-80
2021/06/23 08:28:07;;;;;;;1.50;0.90;;;16.90;98.20;;;;;;4988109;28;20829;-81
2021/06/23 08:30:37;;;;;;;1.50;1.00;;;16.80;98.20;;;;;;4978473;28;20670;-78
2021/06/23 08:33:13;;;;;;;1.50;1.00;;;16.80;98.20;;;;;;4979016;28;20512;-80
2021/06/23 08:35:45;;;;;;;1.60;1.20;;;16.90;98.20;;;;;;4979004;28;20609;-82
2021/06/23 08:38:16;;;;;;;1.53;1.00;;;16.90;98.20;;;;;;4966692;28;20479;-79
2021/06/23 08:41:02;;;;;;;1.57;0.90;;;16.90;98.20;;;;;;4981231;28;20595;-81
2021/06/23 08:46:56;;;;;;;1.60;1.10;;;16.90;98.20;;;;;;4968026;28;20477;-80
2021/06/23 08:49:38;;;;;;;1.57;0.90;;;16.90;98.20;;;;;;4984299;28;20465;-79
2021/06/23 08:54:55;;;;;;;1.50;1.00;;;17.00;98.20;;;;;;4976029;28;20470;-79
2021/06/23 08:57:23;;;;;;;1.50;0.90;;;17.00;98.20;;;;;;4980471;28;20498;-79
2021/06/23 09:00:26;;;;;;;1.50;0.90;;;17.00;98.20;;;;;;4979197;28;20469;-81
2021/06/23 09:03:03;;;;;;;1.53;1.00;;;17.00;98.20;;;;;;4977325;28;20556;-79
2021/06/23 09:06:13;;;;;;;1.60;1.10;;;17.10;98.20;;;;;;4975043;28;20600;-81
2021/06/23 09:08:50;;;;;;;1.50;0.90;;;17.20;98.20;;;;;;4976797;28;20482;-79
2021/06/23 09:11:40;;;;;;;1.50;0.90;;;17.20;98.20;;;;;;4969464;28;20507;-79
2021/06/23 09:14:32;;;;;;;1.50;0.90;;;17.40;98.20;;;;;;4986480;28;20464;-82
2021/06/23 09:17:07;;;;;;;1.50;0.90;;;17.50;98.20;;;;;;4973880;28;20487;-78
2021/06/23 09:20:16;;;;;;;1.50;0.90;;;17.60;98.20;;;;;;4980499;28;20888;-83
2021/06/23 09:22:55;;;;;;;1.50;0.93;;;17.80;98.20;;;;;;4947955;28;20486;-80
2021/06/23 09:25:34;;;;;;;1.60;1.00;;;17.90;98.20;;;;;;4976541;28;20478;-81
2021/06/23 09:28:06;;;;;;;1.50;0.90;;;18.00;98.20;;;;;;4986927;28;20512;-80
2021/06/23 09:30:45;;;;;;;1.53;0.90;;;18.10;98.20;;;;;;4970593;28;20520;-80
2021/06/23 09:33:32;;;;;;;1.53;0.97;;;18.10;98.20;;;;;;4963300;28;20484;-80
2021/06/23 09:36:20;;;;;;;1.50;0.90;;;18.20;98.20;;;;;;4967158;28;20454;-80
2021/06/23 09:38:55;;;;;;;1.60;1.30;;;18.30;98.20;;;;;;4979799;28;20525;-80
2021/06/23 09:41:32;;;;;;;1.50;0.90;;;18.50;98.20;;;;;;4964180;28;20473;-79
2021/06/23 09:44:05;;;;;;;1.50;0.90;;;18.60;98.20;;;;;;4970415;28;20478;-82
2021/06/23 09:46:47;;;;;;;1.57;0.90;;;18.80;97.60;;;;;;4964459;28;21092;-83
2021/06/23 09:52:02;;;;;;;1.70;0.97;;;19.00;96.40;;;;;;4956479;28;20528;-81
2021/06/23 09:54:51;;;;;;;1.60;1.00;;;19.10;96.40;;;;;;4971172;28;20463;-81
2021/06/23 09:57:40;;;;;;;;;;;;;;;;;;;;;
2021/06/23 10:00:16;;;;;;;1.50;0.90;;;19.00;96.50;;;;;;4972385;28;20473;-79
2021/06/23 10:02:57;;;;;;;2.13;1.93;;;19.00;97.00;;;;;;4959021;28;20497;-79
2021/06/23 10:05:49;;;;;;;1.50;0.90;;;19.00;97.00;;;;;;4974890;28;20502;-81
2021/06/23 10:08:22;;;;;;;1.50;0.90;;;19.10;96.80;;;;;;4977985;28;20490;-81
2021/06/23 10:11:06;;;;;;;1.53;1.00;;;19.10;96.40;;;;;;4963404;28;20485;-85
2021/06/23 10:17:38;;;;;;;1.50;0.90;;;19.00;96.20;;;;;;4965467;28;20468;-81
2021/06/23 10:20:22;;;;;;;1.50;0.90;;;19.00;97.10;;;;;;4973605;28;20477;-85
2021/06/23 10:23:16;;;;;;;1.50;0.90;;;19.00;96.70;;;;;;4979211;28;20481;-84
2021/06/23 10:28:35;;;;;;;1.50;0.90;;;18.90;96.80;;;;;;4966598;28;20486;-81
2021/06/23 10:34:22;;;;;;;1.50;0.90;;;19.00;97.00;;;;;;4979630;28;20497;-80
2021/06/23 10:39:56;;;;;;;1.50;0.90;;;19.10;96.70;;;;;;4980268;28;20474;-81
2021/06/23 10:42:36;;;;;;;1.50;1.00;;;19.20;96.30;;;;;;4976397;28;20476;-83
2021/06/23 10:45:23;;;;;;;1.50;1.00;;;19.30;95.80;;;;;;4974723;28;20486;-83
2021/06/23 10:51:31;;;;;;;1.53;0.90;;;19.40;95.40;;;;;;4936082;28;20517;-82
2021/06/23 10:54:36;;;;;;;1.50;0.93;;;19.60;95.00;;;;;;4981663;28;20469;-81
2021/06/23 10:57:27;;;;;;;1.57;1.00;;;19.60;95.20;;;;;;4972434;28;20554;-83
2021/06/23 11:00:32;;;;;;;1.53;0.97;;;19.60;94.80;;;;;;4980058;28;21009;-82
2021/06/23 11:03:17;;;;;;;1.50;0.90;;;19.70;95.10;;;;;;4976992;28;20531;-82
2021/06/23 11:06:07;;;;;;;1.50;0.90;;;19.80;94.70;;;;;;4973632;28;20835;-82
2021/06/23 11:11:47;;;;;;;1.50;1.00;;;20.10;94.60;;;;;;4965844;28;21128;-82
2021/06/23 11:14:42;;;;;;;1.53;0.90;;;20.30;93.00;;;;;;4981768;28;20488;-82
2021/06/23 11:17:48;;;;;;;1.53;0.90;;;20.40;93.20;;;;;;4969693;28;20551;-83
2021/06/23 11:21:10;;;;;;;1.50;0.90;;;20.50;92.50;;;;;;4969142;28;20557;-82
2021/06/23 11:24:12;;;;;;;1.53;0.90;;;20.70;92.50;;;;;;4964384;28;20905;-82
2021/06/23 11:30:48;;;;;;;1.50;0.90;;;20.90;90.10;;;;;;4963642;28;20477;-84
2021/06/23 11:34:08;;;;;;;1.53;0.90;;;20.90;92.00;;;;;;4898252;29;20480;-79
2021/06/23 11:37:14;;;;;;;1.50;0.90;;;21.20;90.90;;;;;;4912134;28;20491;-83
2021/06/23 11:39:55;;;;;;;1.53;0.90;;;21.50;90.50;;;;;;4972744;28;20563;-80
2021/06/23 11:42:50;;;;;;;1.53;0.90;;;21.80;90.30;;;;;;4969629;28;20585;-81
2021/06/23 11:45:28;;;;;;;1.50;0.90;;;22.00;88.80;;;;;;4975377;28;20556;-82
2021/06/23 11:48:05;;;;;;;1.53;0.90;;;22.00;88.20;;;;;;4979233;28;20574;-81
2021/06/23 11:50:33;;;;;;;1.50;0.90;;;22.00;88.40;;;;;;4973704;28;20470;-81
2021/06/23 11:53:07;;;;;;;1.50;0.90;;;22.00;89.30;;;;;;4981569;28;21079;-82
2021/06/23 11:55:44;;;;;;;1.60;1.30;;;22.10;89.30;;;;;;4979842;28;20504;-79
2021/06/23 11:58:14;;;;;;;2.53;1.73;;;22.10;89.00;;;;;;4968030;28;20466;-82
2021/06/23 12:01:15;;;;;;;1.57;0.90;;;22.20;88.40;;;;;;4980208;28;20474;-80
2021/06/23 12:03:43;;;;;;;1.53;0.90;;;22.20;88.10;;;;;;4919194;29;20511;-82
2021/06/23 12:06:22;;;;;;;1.50;0.90;;;22.20;88.20;;;;;;4964460;28;20593;-81
2021/06/23 12:09:15;;;;;;;1.50;0.90;;;22.20;87.80;;;;;;4985763;28;20772;-80
2021/06/23 12:12:00;;;;;;;1.50;0.90;;;22.30;88.10;;;;;;4976768;28;20504;-79
2021/06/23 12:14:27;;;;;;;1.50;0.90;;;22.40;87.50;;;;;;4981977;28;20474;-79
2021/06/23 12:17:10;;;;;;;1.50;0.90;;;22.40;87.20;;;;;;4973340;28;20897;-80
2021/06/23 12:25:15;;;;;;;1.50;0.90;;;22.20;87.30;;;;;;4963916;28;20481;-80
2021/06/23 12:27:53;;;;;;;1.50;0.90;;;22.20;88.00;;;;;;4963723;28;21404;-79
2021/06/23 12:30:28;;;;;;;1.50;0.90;;;22.20;87.90;;;;;;4974792;28;20482;-80
2021/06/23 12:33:03;;;;;;;1.50;0.90;;;22.20;87.80;;;;;;4980418;28;20513;-79
2021/06/23 12:35:31;;;;;;;1.50;0.90;;;22.10;87.90;;;;;;4976529;28;20470;-79
2021/06/23 12:40:55;;;;;;;1.50;0.90;;;22.20;87.80;;;;;;4969208;28;20998;-80
2021/06/23 12:43:46;;;;;;;1.50;0.90;;;22.20;87.50;;;;;;4957215;28;20582;-80
2021/06/23 12:46:13;;;;;;;1.50;0.90;;;22.30;87.70;;;;;;4961826;28;20488;-81
2021/06/23 12:51:44;;;;;;;1.60;1.00;;;22.50;87.80;;;;;;4962430;28;20896;-81
2021/06/23 12:54:14;;;;;;;1.53;0.90;;;22.50;88.00;;;;;;4976844;28;20552;-80
2021/06/23 12:56:47;;;;;;;1.50;0.90;;;22.60;87.90;;;;;;4965128;28;20500;-81
2021/06/23 12:59:21;;;;;;;1.50;0.90;;;22.80;87.40;;;;;;4976807;28;20898;-78
2021/06/23 13:02:06;;;;;;;1.50;0.90;;;22.90;86.10;;;;;;4967921;28;20598;-81
2021/06/23 13:04:34;;;;;;;1.50;0.90;;;22.80;86.70;;;;;;4975987;28;20470;-83
2021/06/23 13:07:26;;;;;;;1.50;0.90;;;22.90;86.50;;;;;;4970526;28;20539;-82
2021/06/23 13:10:07;;;;;;;1.50;0.90;;;22.90;85.20;;;;;;4968850;28;20474;-80
2021/06/23 13:12:36;;;;;;;1.50;0.90;;;23.00;85.50;;;;;;4972247;28;20493;-82
2021/06/23 13:18:03;;;;;;;1.50;0.90;;;23.00;85.50;;;;;;4964345;28;20956;-80
2021/06/23 13:23:27;;;;;;;1.50;0.90;;;23.10;86.20;;;;;;4956148;28;20702;-77
2021/06/23 13:26:14;;;;;;;1.50;0.90;;;23.20;86.00;;;;;;4957817;28;20914;-81
2021/06/23 13:29:21;;;;;;;1.50;0.90;;;23.10;84.90;;;;;;4983518;28;20478;-82
2021/06/23 13:36:08;;;;;;;1.50;0.90;;;23.00;85.80;;;;;;4939560;28;21071;-84
2021/06/23 13:38:56;;;;;;;1.50;0.90;;;23.00;85.50;;;;;;4975558;28;20490;-84
2021/06/23 13:48:02;;;;;;;2.00;1.80;;;22.80;86.30;;;;;;4918029;29;20545;-84
2021/06/23 13:50:32;;;;;;;1.50;0.90;;;22.70;85.70;;;;;;4966475;28;20494;-83
2021/06/23 13:53:01;;;;;;;1.90;1.40;;;22.60;85.80;;;;;;4971316;28;20911;-82
2021/06/23 13:55:31;;;;;;;1.50;0.90;;;22.50;86.40;;;;;;4975364;28;20962;-83
2021/06/23 13:58:12;;;;;;;1.50;0.93;;;22.40;86.50;;;;;;4977117;28;21359;-84
2021/06/23 14:00:59;;;;;;;1.50;0.90;;;22.30;86.30;;;;;;4975530;28;20551;-83
2021/06/23 14:03:29;;;;;;;1.50;0.90;;;22.20;87.00;;;;;;4961655;28;20553;-82
2021/06/23 14:06:42;;;;;;;1.50;0.90;;;22.20;86.60;;;;;;4964034;28;20528;-80
2021/06/23 14:09:29;;;;;;;1.50;0.90;;;22.10;87.20;;;;;;4969292;28;20462;-82
2021/06/23 14:12:19;;;;;;;1.50;0.90;;;22.10;87.60;;;;;;4973688;28;20528;-82
2021/06/23 14:14:51;;;;;;;1.50;0.90;;;22.10;87.00;;;;;;4983112;28;20763;-81
2021/06/23 14:17:49;;;;;;;1.50;0.90;;;22.00;86.90;;;;;;4979033;28;20488;-83
2021/06/23 14:20:29;;;;;;;1.50;0.90;;;22.00;86.50;;;;;;4974625;28;20572;-82
2021/06/23 14:23:06;;;;;;;1.50;0.90;;;22.00;87.40;;;;;;4980915;28;20963;-84
2021/06/23 14:28:45;;;;;;;1.50;0.90;;;22.10;87.30;;;;;;4957498;28;20484;-82
2021/06/23 14:31:23;;;;;;;1.50;0.90;;;22.20;87.00;;;;;;4972560;28;20488;-82
2021/06/23 14:33:51;;;;;;;1.50;0.90;;;22.30;87.20;;;;;;4987664;28;20472;-83
2021/06/23 14:39:42;;;;;;;1.50;0.90;;;22.50;85.70;;;;;;4978056;28;20513;-82
2021/06/23 14:42:38;;;;;;;1.50;0.90;;;22.50;86.50;;;;;;4973907;28;20861;-82
2021/06/23 14:45:12;;;;;;;1.50;0.90;;;22.60;85.80;;;;;;4976305;28;20563;-84
2021/06/23 14:48:06;;;;;;;1.60;1.10;;;22.80;84.50;;;;;;4973472;28;21243;-83
2021/06/23 14:50:46;;;;;;;1.50;0.90;;;22.90;85.70;;;;;;4977397;28;20520;-83
2021/06/23 14:53:25;;;;;;;1.50;0.90;;;22.90;85.20;;;;;;4965307;28;20482;-82
2021/06/23 14:56:00;;;;;;;1.50;0.90;;;22.90;85.00;;;;;;4962714;28;20913;-82
2021/06/23 14:59:12;;;;;;;1.50;0.90;;;23.00;84.70;;;;;;4982867;28;20471;-83
2021/06/23 15:04:35;;;;;;;1.50;1.00;;;23.00;84.30;;;;;;4954491;28;20497;-84
2021/06/23 15:07:52;;;;;;;1.50;0.90;;;23.10;85.00;;;;;;4973087;28;20503;-83
2021/06/23 15:10:28;;;;;;;1.60;1.00;;;23.40;83.90;;;;;;4975212;28;20478;-79
2021/06/23 15:13:31;;;;;;;1.50;0.90;;;23.70;83.00;;;;;;4972683;28;20527;-84
2021/06/23 15:16:34;;;;;;;1.50;0.90;;;23.90;82.60;;;;;;4956443;28;20481;-84
2021/06/23 15:19:33;;;;;;;1.50;0.90;;;24.20;83.80;;;;;;4985820;28;20466;-83
2021/06/23 15:22:22;;;;;;;1.50;0.90;;;24.60;82.40;;;;;;4974675;28;20488;-82
2021/06/23 15:24:49;;;;;;;1.50;0.90;;;24.90;82.10;;;;;;4978174;28;20462;-84
2021/06/23 15:27:16;;;;;;;1.50;0.90;;;25.00;80.20;;;;;;4973726;28;20528;-78
2021/06/23 15:29:42;;;;;;;1.50;0.90;;;25.00;81.50;;;;;;4974995;28;20462;-82
2021/06/23 15:32:12;;;;;;;1.80;1.20;;;25.10;80.60;;;;;;4971629;28;20583;-82
2021/06/23 15:34:38;;;;;;;1.60;0.90;;;25.20;81.20;;;;;;4977276;28;20466;-84
2021/06/23 15:37:07;;;;;;;1.50;0.90;;;25.40;79.40;;;;;;4969271;28;20492;-84
2021/06/23 15:39:34;;;;;;;1.50;0.90;;;25.40;80.00;;;;;;4971201;28;20473;-84
2021/06/23 15:42:02;;;;;;;1.50;0.97;;;25.50;80.90;;;;;;4967651;28;20524;-84
2021/06/23 15:44:31;;;;;;;1.50;0.90;;;25.60;81.10;;;;;;4971991;28;20592;-84
2021/06/23 15:46:58;;;;;;;1.50;0.90;;;25.70;78.20;;;;;;4962148;28;20493;-84